createdAt,value
2022-09-10T00:00:19.988Z,0.00
2022-09-10T00:01:19.986Z,0.00
2022-09-10T00:02:19.993Z,0.00
2022-09-10T00:03:19.991Z,0.00
2022-09-10T00:04:19.992Z,0.00
2022-09-10T00:05:19.993Z,0.00
2022-09-10T00:06:20.017Z,0.00
2022-09-10T00:07:19.995Z,0.00
2022-09-10T00:08:19.995Z,0.00
2022-09-10T00:09:19.997Z,0.00
2022-09-10T00:10:19.997Z,0.00
2022-09-10T00:11:19.996Z,0.00
2022-09-10T00:12:20.001Z,0.00
2022-09-10T00:13:19.995Z,0.00
2022-09-10T00:14:20.005Z,0.00
2022-09-10T00:15:19.999Z,0.00
2022-09-10T00:16:20.043Z,0.00
2022-09-10T00:17:19.998Z,0.00
2022-09-10T00:18:19.999Z,0.00
2022-09-10T00:19:20.004Z,0.00
2022-09-10T00:20:20.004Z,0.00
2022-09-10T00:21:20.000Z,0.00
2022-09-10T00:22:20.023Z,0.00
2022-09-10T00:23:20.002Z,0.00
2022-09-10T00:24:20.007Z,0.00
2022-09-10T00:25:20.001Z,0.00
2022-09-10T00:26:20.007Z,0.00
2022-09-10T00:27:20.004Z,0.00
2022-09-10T00:28:20.011Z,0.00
2022-09-10T00:29:20.007Z,0.00
2022-09-10T00:30:20.006Z,0.00
2022-09-10T00:31:20.049Z,0.00
2022-09-10T00:32:20.008Z,0.00
2022-09-10T00:33:20.010Z,0.00
2022-09-10T00:34:20.011Z,0.00
2022-09-10T00:35:20.007Z,0.00
2022-09-10T00:36:20.017Z,0.00
2022-09-10T00:37:20.011Z,0.00
2022-09-10T00:38:20.034Z,0.00
2022-09-10T00:39:20.012Z,0.00
2022-09-10T00:40:20.014Z,0.00
2022-09-10T00:41:20.018Z,0.00
2022-09-10T00:42:20.017Z,0.00
2022-09-10T00:43:20.014Z,0.00
2022-09-10T00:44:20.016Z,0.00
2022-09-10T00:45:20.020Z,0.00
2022-09-10T00:46:20.018Z,0.00
2022-09-10T00:47:20.014Z,0.00
2022-09-10T00:48:20.016Z,0.00
2022-09-10T00:49:20.015Z,0.00
2022-09-10T00:50:20.028Z,0.00
2022-09-10T00:51:20.017Z,0.00
2022-09-10T00:52:20.022Z,0.00
2022-09-10T00:53:20.021Z,0.00
2022-09-10T00:54:20.040Z,0.00
2022-09-10T00:55:20.017Z,0.00
2022-09-10T00:56:20.024Z,0.00
2022-09-10T00:57:20.026Z,0.00
2022-09-10T00:58:20.023Z,0.00
2022-09-10T00:59:20.022Z,0.00
2022-09-10T01:00:20.026Z,0.00
2022-09-10T01:01:20.023Z,0.00
2022-09-10T01:02:20.090Z,0.00
2022-09-10T01:03:24.872Z,0.00
2022-09-10T01:04:20.029Z,0.00
2022-09-10T01:05:20.030Z,0.00
2022-09-10T01:06:20.029Z,0.00
2022-09-10T01:07:20.024Z,0.00
2022-09-10T01:08:20.026Z,0.00
2022-09-10T01:09:20.029Z,0.00
2022-09-10T01:10:20.050Z,0.00
2022-09-10T01:11:20.027Z,0.00
2022-09-10T01:12:20.030Z,0.00
2022-09-10T01:13:20.031Z,0.00
2022-09-10T01:14:20.029Z,0.00
2022-09-10T01:15:20.033Z,0.00
2022-09-10T01:16:20.101Z,0.00
2022-09-10T01:17:20.033Z,0.00
2022-09-10T01:18:20.166Z,0.00
2022-09-10T01:19:20.029Z,0.00
2022-09-10T01:20:20.035Z,0.00
2022-09-10T01:21:20.033Z,0.00
2022-09-10T01:22:20.033Z,0.00
2022-09-10T01:23:20.039Z,0.00
2022-09-10T01:24:20.039Z,0.00
2022-09-10T01:25:20.037Z,0.00
2022-09-10T01:26:20.060Z,0.00
2022-09-10T01:27:20.036Z,0.00
2022-09-10T01:28:20.039Z,0.00
2022-09-10T01:29:20.037Z,0.00
2022-09-10T01:30:20.044Z,0.00
2022-09-10T01:31:20.085Z,0.00
2022-09-10T01:32:20.041Z,0.00
2022-09-10T01:33:20.034Z,0.00
2022-09-10T01:34:20.045Z,0.00
2022-09-10T01:35:20.040Z,0.00
2022-09-10T01:36:20.040Z,0.00
2022-09-10T01:37:20.044Z,0.00
2022-09-10T01:38:20.044Z,0.00
2022-09-10T01:39:20.042Z,0.00
2022-09-10T01:40:20.049Z,0.00
2022-09-10T01:41:20.043Z,0.00
2022-09-10T01:42:20.064Z,0.00
2022-09-10T01:43:20.046Z,0.00
2022-09-10T01:44:20.048Z,0.00
2022-09-10T01:45:20.111Z,0.00
2022-09-10T01:46:20.050Z,0.00
2022-09-10T01:47:20.052Z,0.00
2022-09-10T01:48:20.046Z,0.00
2022-09-10T01:49:20.046Z,0.00
2022-09-10T01:50:20.047Z,0.00
2022-09-10T01:51:20.048Z,0.00
2022-09-10T01:52:20.048Z,0.00
2022-09-10T01:53:20.053Z,0.00
2022-09-10T01:54:20.050Z,0.00
2022-09-10T01:55:20.051Z,0.00
2022-09-10T01:56:20.055Z,0.00
2022-09-10T01:57:20.054Z,0.00
2022-09-10T01:58:20.075Z,0.00
2022-09-10T01:59:20.051Z,0.00
2022-09-10T02:00:20.059Z,0.00
2022-09-10T02:01:20.109Z,0.00
2022-09-10T02:02:20.078Z,0.00
2022-09-10T02:03:20.054Z,0.00
2022-09-10T02:04:20.059Z,0.00
2022-09-10T02:05:20.053Z,0.00
2022-09-10T02:06:20.061Z,0.00
2022-09-10T02:07:20.056Z,0.00
2022-09-10T02:08:20.057Z,0.00
2022-09-10T02:09:20.060Z,0.00
2022-09-10T02:10:20.055Z,0.00
2022-09-10T02:11:20.061Z,0.00
2022-09-10T02:12:20.071Z,0.00
2022-09-10T02:13:20.059Z,0.00
2022-09-10T02:14:20.081Z,0.00
2022-09-10T02:15:20.056Z,0.00
2022-09-10T02:16:20.103Z,0.00
2022-09-10T02:17:20.062Z,0.00
2022-09-10T02:18:20.059Z,0.00
2022-09-10T02:19:20.387Z,0.00
2022-09-10T02:20:20.061Z,0.00
2022-09-10T02:21:20.066Z,0.00
2022-09-10T02:22:20.065Z,0.00
2022-09-10T02:23:20.062Z,0.00
2022-09-10T02:24:20.063Z,0.00
2022-09-10T02:25:20.066Z,0.00
2022-09-10T02:26:20.068Z,0.00
2022-09-10T02:27:20.062Z,0.00
2022-09-10T02:28:20.070Z,0.00
2022-09-10T02:29:20.067Z,0.00
2022-09-10T02:30:20.083Z,0.00
2022-09-10T02:31:20.120Z,0.00
2022-09-10T02:32:20.071Z,0.00
2022-09-10T02:33:20.072Z,0.00
2022-09-10T02:34:20.077Z,0.00
2022-09-10T02:35:20.067Z,0.00
2022-09-10T02:36:20.069Z,0.00
2022-09-10T02:37:20.081Z,0.00
2022-09-10T02:38:20.074Z,0.00
2022-09-10T02:39:20.070Z,0.00
2022-09-10T02:40:20.072Z,0.00
2022-09-10T02:41:20.071Z,0.00
2022-09-10T02:42:20.073Z,0.00
2022-09-10T02:43:20.074Z,0.00
2022-09-10T02:44:20.075Z,0.00
2022-09-10T02:45:20.166Z,0.00
2022-09-10T02:46:20.100Z,0.00
2022-09-10T02:47:20.074Z,0.00
2022-09-10T02:48:20.073Z,0.00
2022-09-10T02:49:20.073Z,0.00
2022-09-10T02:50:20.081Z,0.00
2022-09-10T02:51:20.076Z,0.00
2022-09-10T02:52:20.077Z,0.00
2022-09-10T02:53:20.079Z,0.00
2022-09-10T02:54:20.077Z,0.00
2022-09-10T02:55:20.076Z,0.00
2022-09-10T02:56:20.080Z,0.00
2022-09-10T02:57:20.077Z,0.00
2022-09-10T02:58:20.084Z,0.00
2022-09-10T02:59:20.078Z,0.00
2022-09-10T03:00:20.081Z,0.00
2022-09-10T03:01:20.185Z,0.00
2022-09-10T03:02:20.149Z,0.00
2022-09-10T03:03:20.172Z,0.00
2022-09-10T03:04:20.408Z,0.00
2022-09-10T03:05:20.268Z,0.00
2022-09-10T03:06:20.087Z,0.00
2022-09-10T03:07:20.090Z,0.00
2022-09-10T03:08:20.084Z,0.00
2022-09-10T03:09:20.083Z,0.00
2022-09-10T03:10:20.084Z,0.00
2022-09-10T03:11:20.082Z,0.00
2022-09-10T03:12:20.082Z,0.00
2022-09-10T03:13:20.083Z,0.00
2022-09-10T03:14:20.082Z,0.00
2022-09-10T03:15:20.086Z,0.00
2022-09-10T03:16:20.155Z,0.00
2022-09-10T03:17:20.087Z,0.00
2022-09-10T03:18:20.109Z,0.00
2022-09-10T03:19:20.412Z,0.00
2022-09-10T03:20:20.090Z,0.00
2022-09-10T03:21:20.088Z,0.00
2022-09-10T03:22:20.088Z,0.00
2022-09-10T03:23:20.092Z,0.00
2022-09-10T03:24:20.089Z,0.00
2022-09-10T03:25:20.087Z,0.00
2022-09-10T03:26:20.085Z,0.00
2022-09-10T03:27:20.093Z,0.00
2022-09-10T03:28:20.090Z,0.00
2022-09-10T03:29:20.091Z,0.00
2022-09-10T03:30:20.094Z,0.00
2022-09-10T03:31:20.155Z,0.00
2022-09-10T03:32:20.090Z,0.00
2022-09-10T03:33:20.093Z,0.00
2022-09-10T03:34:20.111Z,0.00
2022-09-10T03:35:20.092Z,0.00
2022-09-10T03:36:20.092Z,0.00
2022-09-10T03:37:20.097Z,0.00
2022-09-10T03:38:20.097Z,0.00
2022-09-10T03:39:20.091Z,0.00
2022-09-10T03:40:20.097Z,0.00
2022-09-10T03:41:20.097Z,0.00
2022-09-10T03:42:20.092Z,0.00
2022-09-10T03:43:20.093Z,0.00
2022-09-10T03:44:20.094Z,0.00
2022-09-10T03:45:20.095Z,0.00
2022-09-10T03:46:20.096Z,0.00
2022-09-10T03:47:20.096Z,0.00
2022-09-10T03:48:20.096Z,0.00
2022-09-10T03:49:20.098Z,0.00
2022-09-10T03:50:20.122Z,0.00
2022-09-10T03:51:20.098Z,0.00
2022-09-10T03:52:20.099Z,0.00
2022-09-10T03:53:20.102Z,0.00
2022-09-10T03:54:20.101Z,0.00
2022-09-10T03:55:20.097Z,0.00
2022-09-10T03:56:20.154Z,0.00
2022-09-10T03:57:20.102Z,0.00
2022-09-10T03:58:20.105Z,0.00
2022-09-10T03:59:20.101Z,0.00
2022-09-10T04:00:20.104Z,0.00
2022-09-10T04:01:20.151Z,4.00
2022-09-10T04:02:20.140Z,4.00
2022-09-10T04:03:20.104Z,0.00
2022-09-10T04:04:20.102Z,0.00
2022-09-10T04:05:20.107Z,0.00
2022-09-10T04:06:20.120Z,0.00
2022-09-10T04:07:20.103Z,4.00
2022-09-10T04:08:20.105Z,4.00
2022-09-10T04:09:20.107Z,4.00
2022-09-10T04:10:20.108Z,4.00
2022-09-10T04:11:20.106Z,8.00
2022-09-10T04:12:20.108Z,8.00
2022-09-10T04:13:20.106Z,8.00
2022-09-10T04:14:20.105Z,8.00
2022-09-10T04:15:20.105Z,12.00
2022-09-10T04:16:20.122Z,12.00
2022-09-10T04:17:20.106Z,16.00
2022-09-10T04:18:20.107Z,20.00
2022-09-10T04:19:20.113Z,24.00
2022-09-10T04:20:20.115Z,24.00
2022-09-10T04:21:20.106Z,24.00
2022-09-10T04:22:20.135Z,28.00
2022-09-10T04:23:20.109Z,32.00
2022-09-10T04:24:20.106Z,40.00
2022-09-10T04:25:20.112Z,44.00
2022-09-10T04:26:20.118Z,48.00
2022-09-10T04:27:20.115Z,52.00
2022-09-10T04:28:20.115Z,60.00
2022-09-10T04:29:20.110Z,64.00
2022-09-10T04:30:20.111Z,68.00
2022-09-10T04:31:20.140Z,76.00
2022-09-10T04:32:20.110Z,80.00
2022-09-10T04:33:20.114Z,88.00
2022-09-10T04:34:20.114Z,96.00
2022-09-10T04:35:20.111Z,104.00
2022-09-10T04:36:20.112Z,112.00
2022-09-10T04:37:20.118Z,116.00
2022-09-10T04:38:20.139Z,128.00
2022-09-10T04:39:20.111Z,140.00
2022-09-10T04:40:20.116Z,144.00
2022-09-10T04:41:20.115Z,156.00
2022-09-10T04:42:20.113Z,164.00
2022-09-10T04:43:20.118Z,176.00
2022-09-10T04:44:20.142Z,188.00
2022-09-10T04:45:20.118Z,196.00
2022-09-10T04:46:20.118Z,208.00
2022-09-10T04:47:20.117Z,216.00
2022-09-10T04:48:20.119Z,228.00
2022-09-10T04:49:20.120Z,240.00
2022-09-10T04:50:20.127Z,248.00
2022-09-10T04:51:20.112Z,264.00
2022-09-10T04:52:20.117Z,272.00
2022-09-10T04:53:20.118Z,280.00
2022-09-10T04:54:20.140Z,292.00
2022-09-10T04:55:20.121Z,304.00
2022-09-10T04:56:20.116Z,316.00
2022-09-10T04:57:20.120Z,324.00
2022-09-10T04:58:20.118Z,336.00
2022-09-10T04:59:20.119Z,348.00
2022-09-10T05:00:20.116Z,364.00
2022-09-10T05:01:20.153Z,372.00
2022-09-10T05:02:20.200Z,380.00
2022-09-10T05:03:20.122Z,388.00
2022-09-10T05:04:20.126Z,404.00
2022-09-10T05:05:20.124Z,412.00
2022-09-10T05:06:20.127Z,420.00
2022-09-10T05:07:20.126Z,436.00
2022-09-10T05:08:20.122Z,448.00
2022-09-10T05:09:20.124Z,468.00
2022-09-10T05:10:20.145Z,488.00
2022-09-10T05:11:20.125Z,508.00
2022-09-10T05:12:20.123Z,532.00
2022-09-10T05:13:20.121Z,548.00
2022-09-10T05:14:20.123Z,568.00
2022-09-10T05:15:20.122Z,592.00
2022-09-10T05:16:20.170Z,608.00
2022-09-10T05:17:20.130Z,612.00
2022-09-10T05:18:20.122Z,624.00
2022-09-10T05:19:20.124Z,628.00
2022-09-10T05:20:20.121Z,628.00
2022-09-10T05:21:20.128Z,640.00
2022-09-10T05:22:20.125Z,660.00
2022-09-10T05:23:20.127Z,676.00
2022-09-10T05:24:20.127Z,696.00
2022-09-10T05:25:20.130Z,712.00
2022-09-10T05:26:20.153Z,732.00
2022-09-10T05:27:20.126Z,748.00
2022-09-10T05:28:20.126Z,764.00
2022-09-10T05:29:20.131Z,780.00
2022-09-10T05:30:20.134Z,792.00
2022-09-10T05:31:20.199Z,800.00
2022-09-10T05:32:20.127Z,816.00
2022-09-10T05:33:20.127Z,824.00
2022-09-10T05:34:20.126Z,836.00
2022-09-10T05:35:20.124Z,844.00
2022-09-10T05:36:20.126Z,856.00
2022-09-10T05:37:20.129Z,868.00
2022-09-10T05:38:20.131Z,880.00
2022-09-10T05:39:20.146Z,896.00
2022-09-10T05:40:20.124Z,908.00
2022-09-10T05:41:20.131Z,924.00
2022-09-10T05:42:20.156Z,932.00
2022-09-10T05:43:20.135Z,944.00
2022-09-10T05:44:20.131Z,956.00
2022-09-10T05:45:20.132Z,964.00
2022-09-10T05:46:20.127Z,976.00
2022-09-10T05:47:20.134Z,988.00
2022-09-10T05:48:20.127Z,996.00
2022-09-10T05:49:20.131Z,1004.00
2022-09-10T05:50:20.130Z,1012.00
2022-09-10T05:51:20.133Z,1028.00
2022-09-10T05:52:20.131Z,1040.00
2022-09-10T05:53:20.139Z,1056.00
2022-09-10T05:54:20.138Z,1068.00
2022-09-10T05:55:20.143Z,1080.00
2022-09-10T05:56:20.136Z,1096.00
2022-09-10T05:57:20.134Z,1116.00
2022-09-10T05:58:20.156Z,1132.00
2022-09-10T05:59:20.138Z,1152.00
2022-09-10T06:00:20.133Z,1168.00
2022-09-10T06:01:20.140Z,1188.00
2022-09-10T06:02:23.893Z,1208.00
2022-09-10T06:03:20.227Z,1228.00
2022-09-10T06:04:20.136Z,1248.00
2022-09-10T06:05:20.136Z,1264.00
2022-09-10T06:06:20.136Z,1280.00
2022-09-10T06:07:20.135Z,1296.00
2022-09-10T06:08:20.132Z,1304.00
2022-09-10T06:09:20.134Z,1320.00
2022-09-10T06:10:20.140Z,1332.00
2022-09-10T06:11:20.144Z,1352.00
2022-09-10T06:12:20.140Z,1368.00
2022-09-10T06:13:20.141Z,1384.00
2022-09-10T06:14:20.157Z,1396.00
2022-09-10T06:15:20.138Z,1408.00
2022-09-10T06:16:20.224Z,1432.00
2022-09-10T06:17:20.138Z,1400.00
2022-09-10T06:18:20.137Z,1528.00
2022-09-10T06:19:20.144Z,1568.00
2022-09-10T06:20:20.138Z,1604.00
2022-09-10T06:21:20.147Z,1636.00
2022-09-10T06:22:20.139Z,1696.00
2022-09-10T06:23:20.139Z,1756.00
2022-09-10T06:24:20.143Z,1836.00
2022-09-10T06:25:20.138Z,1908.00
2022-09-10T06:26:20.136Z,1988.00
2022-09-10T06:27:20.145Z,2056.00
2022-09-10T06:28:20.142Z,2124.00
2022-09-10T06:29:20.142Z,2196.00
2022-09-10T06:30:20.169Z,2276.00
2022-09-10T06:31:20.162Z,2368.00
2022-09-10T06:32:20.140Z,2484.00
2022-09-10T06:33:20.144Z,2616.00
2022-09-10T06:34:20.144Z,2768.00
2022-09-10T06:35:20.147Z,2960.00
2022-09-10T06:36:20.144Z,3232.00
2022-09-10T06:37:20.152Z,3568.00
2022-09-10T06:38:20.144Z,3948.00
2022-09-10T06:39:20.147Z,4288.00
2022-09-10T06:40:20.142Z,4524.00
2022-09-10T06:41:20.146Z,4664.00
2022-09-10T06:42:20.147Z,4796.00
2022-09-10T06:43:20.146Z,4892.00
2022-09-10T06:44:20.150Z,4980.00
2022-09-10T06:45:20.145Z,5072.00
2022-09-10T06:46:54.936Z,5168.00
2022-09-10T06:48:06.535Z,5232.00
2022-09-10T06:48:38.394Z,5328.00
2022-09-10T06:49:20.153Z,5400.00
2022-09-10T06:50:20.148Z,5476.00
2022-09-10T06:51:20.150Z,5552.00
2022-09-10T06:52:20.148Z,5620.00
2022-09-10T06:53:20.157Z,5700.00
2022-09-10T06:54:20.155Z,5748.00
2022-09-10T06:55:20.153Z,5828.00
2022-09-10T06:56:20.155Z,5904.00
2022-09-10T06:57:20.152Z,5980.00
2022-09-10T06:58:20.153Z,6044.00
2022-09-10T06:59:20.156Z,6120.00
2022-09-10T07:00:20.154Z,6216.00
2022-09-10T07:01:20.228Z,6288.00
2022-09-10T07:02:20.230Z,6368.00
2022-09-10T07:03:20.163Z,6464.00
2022-09-10T07:04:20.168Z,6540.00
2022-09-10T07:05:20.158Z,6644.00
2022-09-10T07:06:20.160Z,6724.00
2022-09-10T07:07:20.166Z,6816.00
2022-09-10T07:08:20.158Z,6892.00
2022-09-10T07:09:20.161Z,6968.00
2022-09-10T07:10:20.162Z,7000.00
2022-09-10T07:11:20.162Z,7016.00
2022-09-10T07:12:20.164Z,7044.00
2022-09-10T07:13:20.166Z,7128.00
2022-09-10T07:14:20.174Z,7200.00
2022-09-10T07:15:20.167Z,7268.00
2022-09-10T07:16:20.170Z,7324.00
2022-09-10T07:17:20.171Z,7344.00
2022-09-10T07:18:20.192Z,7380.00
2022-09-10T07:19:20.182Z,7428.00
2022-09-10T07:20:20.186Z,7548.00
2022-09-10T07:21:20.180Z,7628.00
2022-09-10T07:22:20.177Z,7744.00
2022-09-10T07:23:20.189Z,7856.00
2022-09-10T07:24:20.214Z,8044.00
2022-09-10T07:25:20.187Z,8216.00
2022-09-10T07:26:20.187Z,8416.00
2022-09-10T07:27:20.192Z,8684.00
2022-09-10T07:28:20.192Z,9044.00
2022-09-10T07:29:20.193Z,9584.00
2022-09-10T07:30:20.192Z,10508.00
2022-09-10T07:31:20.221Z,14100.00
2022-09-10T07:32:20.198Z,28544.00
2022-09-10T07:33:20.202Z,39136.00
2022-09-10T07:34:20.224Z,36928.00
2022-09-10T07:35:20.209Z,37984.00
2022-09-10T07:36:20.208Z,42336.00
2022-09-10T07:37:20.212Z,39424.00
2022-09-10T07:38:20.215Z,39744.00
2022-09-10T07:39:24.881Z,43520.00
2022-09-10T07:40:20.221Z,43168.00
2022-09-10T07:41:20.229Z,40768.00
2022-09-10T07:42:20.225Z,40672.00
2022-09-10T07:43:20.231Z,43872.00
2022-09-10T07:44:20.229Z,43008.00
2022-09-10T07:45:20.234Z,41600.00
2022-09-10T07:46:20.273Z,42656.00
2022-09-10T07:47:20.250Z,24352.00
2022-09-10T07:48:20.248Z,9380.00
2022-09-10T07:49:20.251Z,8348.00
2022-09-10T07:50:20.273Z,7768.00
2022-09-10T07:51:20.253Z,7228.00
2022-09-10T07:52:20.258Z,6816.00
2022-09-10T07:53:20.269Z,6476.00
2022-09-10T07:54:20.271Z,7556.00
2022-09-10T07:55:20.269Z,12856.00
2022-09-10T07:56:20.277Z,13060.00
2022-09-10T07:57:20.278Z,11360.00
2022-09-10T07:58:20.282Z,9180.00
2022-09-10T07:59:20.284Z,7780.00
2022-09-10T08:00:20.339Z,7424.00
2022-09-10T08:01:20.338Z,7300.00
2022-09-10T08:02:20.347Z,7268.00
2022-09-10T08:03:20.300Z,7240.00
2022-09-10T08:04:20.302Z,7248.00
2022-09-10T08:05:20.307Z,7252.00
2022-09-10T08:06:20.334Z,7272.00
2022-09-10T08:07:20.316Z,7320.00
2022-09-10T08:08:20.323Z,7420.00
2022-09-10T08:09:20.324Z,7616.00
2022-09-10T08:10:20.326Z,7840.00
2022-09-10T08:11:20.332Z,8016.00
2022-09-10T08:12:20.334Z,8140.00
2022-09-10T08:13:20.344Z,8264.00
2022-09-10T08:14:20.352Z,8360.00
2022-09-10T08:15:20.350Z,8460.00
2022-09-10T08:16:20.352Z,8560.00
2022-09-10T08:17:20.358Z,8664.00
2022-09-10T08:18:20.367Z,8792.00
2022-09-10T08:19:20.368Z,8948.00
2022-09-10T08:20:20.375Z,9084.00
2022-09-10T08:21:20.374Z,9252.00
2022-09-10T08:22:20.405Z,9420.00
2022-09-10T08:23:20.384Z,9624.00
2022-09-10T08:24:20.391Z,9836.00
2022-09-10T08:25:20.401Z,10088.00
2022-09-10T08:26:20.406Z,10456.00
2022-09-10T08:27:20.404Z,11204.00
2022-09-10T08:28:24.796Z,12636.00
2022-09-10T08:29:20.418Z,14944.00
2022-09-10T08:30:20.440Z,11908.00
2022-09-10T08:31:20.465Z,10132.00
2022-09-10T08:32:20.437Z,10064.00
2022-09-10T08:33:20.439Z,10060.00
2022-09-10T08:34:20.446Z,10028.00
2022-09-10T08:35:20.454Z,10060.00
2022-09-10T08:36:20.457Z,10260.00
2022-09-10T08:37:20.463Z,10736.00
2022-09-10T08:38:20.490Z,23328.00
2022-09-10T08:39:20.481Z,53856.00
2022-09-10T08:40:20.484Z,66304.00
2022-09-10T08:41:20.493Z,65120.00
2022-09-10T08:42:20.491Z,61824.00
2022-09-10T08:43:20.509Z,65472.00
2022-09-10T08:44:20.711Z,67296.00
2022-09-10T08:45:20.520Z,65504.00
2022-09-10T08:46:20.522Z,68576.00
2022-09-10T08:47:20.532Z,71040.00
2022-09-10T08:48:20.540Z,69952.00
2022-09-10T08:49:20.545Z,71456.00
2022-09-10T08:50:20.556Z,78112.00
2022-09-10T08:51:20.563Z,79392.00
2022-09-10T08:52:20.574Z,69152.00
2022-09-10T08:53:20.582Z,69216.00
2022-09-10T08:54:20.606Z,75328.00
2022-09-10T08:55:20.599Z,70816.00
2022-09-10T08:56:20.607Z,62592.00
2022-09-10T08:57:20.619Z,65472.00
2022-09-10T08:58:20.629Z,71520.00
2022-09-10T08:59:20.639Z,68928.00
2022-09-10T09:00:20.653Z,70080.00
2022-09-10T09:01:20.696Z,75712.00
2022-09-10T09:02:44.739Z,80608.00
2022-09-10T09:03:20.717Z,78496.00
2022-09-10T09:04:20.693Z,77344.00
2022-09-10T09:05:20.706Z,73952.00
2022-09-10T09:06:20.719Z,67360.00
2022-09-10T09:07:20.724Z,69120.00
2022-09-10T09:08:20.741Z,74912.00
2022-09-10T09:09:20.758Z,78432.00
2022-09-10T09:10:20.790Z,75872.00
2022-09-10T09:11:20.776Z,72480.00
2022-09-10T09:12:20.792Z,75040.00
2022-09-10T09:13:20.806Z,75936.00
2022-09-10T09:14:20.820Z,75712.00
2022-09-10T09:15:20.833Z,81024.00
2022-09-10T09:16:20.848Z,83712.00
2022-09-10T09:17:20.859Z,72352.00
2022-09-10T09:18:20.875Z,61824.00
2022-09-10T09:19:20.888Z,70880.00
2022-09-10T09:20:20.910Z,80704.00
2022-09-10T09:21:20.923Z,74688.00
2022-09-10T09:22:20.936Z,70912.00
2022-09-10T09:23:20.952Z,78368.00
2022-09-10T09:24:20.968Z,82816.00
2022-09-10T09:25:20.980Z,79200.00
2022-09-10T09:26:21.018Z,74112.00
2022-09-10T09:27:21.014Z,74816.00
2022-09-10T09:28:21.029Z,76160.00
2022-09-10T09:29:21.047Z,74272.00
2022-09-10T09:30:21.060Z,70080.00
2022-09-10T09:31:21.101Z,72128.00
2022-09-10T09:32:21.093Z,9352.00
2022-09-10T09:33:21.111Z,78176.00
2022-09-10T09:34:21.131Z,73504.00
2022-09-10T09:35:21.143Z,70592.00
2022-09-10T09:36:21.166Z,74464.00
2022-09-10T09:37:21.182Z,76448.00
2022-09-10T09:38:21.196Z,77088.00
2022-09-10T09:39:24.937Z,83264.00
2022-09-10T09:40:21.228Z,84096.00
2022-09-10T09:41:21.249Z,75264.00
2022-09-10T09:42:21.287Z,72544.00
2022-09-10T09:43:21.280Z,78144.00
2022-09-10T09:44:21.503Z,85504.00
2022-09-10T09:45:21.319Z,83584.00
2022-09-10T09:46:21.338Z,83136.00
2022-09-10T09:47:21.353Z,84480.00
2022-09-10T09:48:21.373Z,82752.00
2022-09-10T09:49:21.395Z,84064.00
2022-09-10T09:50:21.412Z,88960.00
2022-09-10T09:51:21.429Z,89632.00
2022-09-10T09:52:21.451Z,44384.00
2022-09-10T09:53:21.466Z,71712.00
2022-09-10T09:55:21.508Z,15804.00
2022-09-10T09:56:21.529Z,78592.00
2022-09-10T09:57:21.551Z,75072.00
2022-09-10T09:58:21.584Z,89184.00
2022-09-10T09:59:21.585Z,97280.00
2022-09-10T10:00:21.599Z,91488.00
2022-09-10T10:01:21.679Z,86336.00
2022-09-10T10:02:21.719Z,22336.00
2022-09-10T10:03:21.661Z,69312.00
2022-09-10T10:04:21.685Z,82752.00
2022-09-10T10:05:21.698Z,75584.00
2022-09-10T10:06:21.719Z,81024.00
2022-09-10T10:07:21.736Z,11132.00
2022-09-10T10:08:21.762Z,9716.00
2022-09-10T10:09:21.777Z,11212.00
2022-09-10T10:10:21.801Z,17696.00
2022-09-10T10:11:21.817Z,65600.00
2022-09-10T10:12:21.834Z,21120.00
2022-09-10T10:13:21.853Z,52768.00
2022-09-10T10:14:21.893Z,14380.00
2022-09-10T10:15:21.891Z,11688.00
2022-09-10T10:16:21.909Z,12652.00
2022-09-10T10:17:21.931Z,13228.00
2022-09-10T10:18:21.945Z,90784.00
2022-09-10T10:19:21.962Z,85696.00
2022-09-10T10:20:21.979Z,82496.00
2022-09-10T10:21:21.999Z,89952.00
2022-09-10T10:22:22.019Z,40832.00
2022-09-10T10:23:22.033Z,98528.00
2022-09-10T10:24:22.051Z,13088.00
2022-09-10T10:25:22.066Z,10704.00
2022-09-10T10:26:22.098Z,11172.00
2022-09-10T10:27:22.108Z,15696.00
2022-09-10T10:28:22.119Z,13528.00
2022-09-10T10:29:22.141Z,13744.00
2022-09-10T10:30:22.177Z,82400.00
2022-09-10T10:31:22.202Z,70112.00
2022-09-10T10:32:22.193Z,76608.00
2022-09-10T10:33:22.206Z,86432.00
2022-09-10T10:34:22.334Z,21344.00
2022-09-10T10:35:22.242Z,65760.00
2022-09-10T10:36:22.255Z,82752.00
2022-09-10T10:37:22.277Z,74528.00
2022-09-10T10:38:22.294Z,84416.00
2022-09-10T10:39:22.308Z,82592.00
2022-09-10T10:40:22.333Z,85664.00
2022-09-10T10:41:22.347Z,31520.00
2022-09-10T10:42:22.362Z,53184.00
2022-09-10T10:43:22.376Z,14532.00
2022-09-10T10:44:22.597Z,24672.00
2022-09-10T10:45:22.411Z,72160.00
2022-09-10T10:46:22.530Z,87872.00
2022-09-10T10:47:22.449Z,27392.00
2022-09-10T10:48:22.471Z,37344.00
2022-09-10T10:49:22.484Z,10696.00
2022-09-10T10:50:22.496Z,8336.00
2022-09-10T10:51:22.515Z,7504.00
2022-09-10T10:52:22.533Z,7908.00
2022-09-10T10:53:22.566Z,8776.00
2022-09-10T10:54:22.564Z,10880.00
2022-09-10T10:55:22.583Z,18176.00
2022-09-10T10:56:22.598Z,59232.00
2022-09-10T10:57:22.634Z,54880.00
2022-09-10T10:58:22.631Z,71040.00
2022-09-10T10:59:22.651Z,93696.00
2022-09-10T11:00:22.759Z,81408.00
2022-09-10T11:01:22.786Z,83936.00
2022-09-10T11:02:22.766Z,86080.00
2022-09-10T11:03:22.705Z,84672.00
2022-09-10T11:04:22.736Z,82816.00
2022-09-10T11:05:22.736Z,71936.00
2022-09-10T11:06:22.759Z,42688.00
2022-09-10T11:07:22.772Z,21696.00
2022-09-10T11:08:22.787Z,14208.00
2022-09-10T11:09:22.801Z,29888.00
2022-09-10T11:10:22.816Z,28672.00
2022-09-10T11:11:22.833Z,28640.00
2022-09-10T11:12:22.848Z,27488.00
2022-09-10T11:13:22.873Z,10768.00
2022-09-10T11:14:22.884Z,12216.00
2022-09-10T11:15:22.904Z,29056.00
2022-09-10T11:16:22.915Z,16088.00
2022-09-10T11:17:22.929Z,12496.00
2022-09-10T11:18:22.972Z,12808.00
2022-09-10T11:19:22.962Z,29280.00
2022-09-10T11:20:30.510Z,18272.00
2022-09-10T11:21:22.993Z,21664.00
2022-09-10T11:22:23.033Z,26368.00
2022-09-10T11:23:23.030Z,9732.00
2022-09-10T11:24:23.045Z,8928.00
2022-09-10T11:25:23.056Z,8092.00
2022-09-10T11:26:23.078Z,7840.00
2022-09-10T11:27:23.086Z,19904.00
2022-09-10T11:28:23.101Z,7320.00
2022-09-10T11:29:23.116Z,5964.00
2022-09-10T11:30:23.131Z,5192.00
2022-09-10T11:31:23.164Z,4444.00
2022-09-10T11:32:23.168Z,3968.00
2022-09-10T11:33:23.248Z,3676.00
2022-09-10T11:34:23.210Z,3576.00
2022-09-10T11:35:23.209Z,3348.00
2022-09-10T11:36:23.212Z,3236.00
2022-09-10T11:37:23.228Z,3284.00
2022-09-10T11:38:23.274Z,3584.00
2022-09-10T11:39:23.257Z,4020.00
2022-09-10T11:40:23.266Z,4024.00
2022-09-10T11:41:23.279Z,4164.00
2022-09-10T11:42:23.383Z,4420.00
2022-09-10T11:43:23.307Z,4552.00
2022-09-10T11:44:23.519Z,4736.00
2022-09-10T11:45:23.330Z,4656.00
2022-09-10T11:46:23.401Z,4404.00
2022-09-10T11:47:23.358Z,4148.00
2022-09-10T11:48:23.385Z,3956.00
2022-09-10T11:49:23.385Z,3872.00
2022-09-10T11:50:23.418Z,3840.00
2022-09-10T11:51:23.403Z,3756.00
2022-09-10T11:52:23.416Z,3524.00
2022-09-10T11:53:23.426Z,3240.00
2022-09-10T11:54:23.442Z,3216.00
2022-09-10T11:55:23.449Z,3056.00
2022-09-10T11:56:23.462Z,2824.00
2022-09-10T11:57:23.469Z,2712.00
2022-09-10T11:58:23.484Z,2580.00
2022-09-10T11:59:23.491Z,2476.00
2022-09-10T12:00:23.508Z,2404.00
2022-09-10T12:01:23.513Z,2344.00
2022-09-10T12:02:23.560Z,2324.00
2022-09-10T12:03:23.648Z,2360.00
2022-09-10T12:04:23.540Z,2472.00
2022-09-10T12:05:23.553Z,2568.00
2022-09-10T12:06:23.588Z,2656.00
2022-09-10T12:07:23.571Z,2748.00
2022-09-10T12:08:23.591Z,2852.00
2022-09-10T12:09:23.595Z,2944.00
2022-09-10T12:10:23.599Z,3044.00
2022-09-10T12:11:23.611Z,3140.00
2022-09-10T12:12:23.622Z,3208.00
2022-09-10T12:13:23.633Z,3240.00
2022-09-10T12:14:23.635Z,3304.00
2022-09-10T12:15:23.651Z,3404.00
2022-09-10T12:16:23.656Z,3556.00
2022-09-10T12:17:23.661Z,3776.00
2022-09-10T12:18:23.683Z,3980.00
2022-09-10T12:19:23.681Z,4108.00
2022-09-10T12:20:23.693Z,4172.00
2022-09-10T12:21:23.695Z,4116.00
2022-09-10T12:22:23.722Z,3988.00
2022-09-10T12:23:23.712Z,3848.00
2022-09-10T12:24:23.718Z,3716.00
2022-09-10T12:25:23.726Z,3596.00
2022-09-10T12:26:23.736Z,3488.00
2022-09-10T12:27:23.741Z,3416.00